Time;durP1;ratioP1;P1;durP2;ratioP2;P2;SDS_P1;SDS_P2;PMS_P1;PMS_P2;Temp;Humidity;BMP_temperature;BMP_pressure;BME280_temperature;BME280_humidity;BME280_pressure;Samples;Min_cycle;Max_cycle;Signal;HPM_P1;HPM_P2
2021/12/06 00:02:20;;;;;;;64.73;30.07;;;;;;;0.23;100.00;100153.06;5321566;55;1139175;-80
2021/12/06 00:12:39;;;;;;;60.60;30.87;;;;;;;0.27;100.00;100152.03;5231206;55;46202;-78
2021/12/06 00:17:44;;;;;;;55.33;25.87;;;;;;;0.24;100.00;100149.56;5120664;57;1133042;-78
2021/12/06 00:22:50;;;;;;;68.50;27.43;;;;;;;0.25;100.00;100150.41;5117958;57;1141120;-79
2021/12/06 00:27:56;;;;;;;59.03;30.37;;;;;;;0.22;100.00;100151.38;4989068;58;1141164;-78
2021/12/06 00:33:03;;;;;;;69.37;30.87;;;;;;;0.20;100.00;100156.23;5031121;58;1141588;-80
2021/12/06 00:38:09;;;;;;;62.27;28.80;;;;;;;0.16;100.00;100150.77;5031341;58;1141135;-79
2021/12/06 00:43:16;;;;;;;65.57;30.90;;;;;;;0.12;100.00;100151.36;5025452;58;1141134;-80
2021/12/06 00:48:22;;;;;;;57.13;28.57;;;;;;;0.09;100.00;100162.34;4967446;57;1141191;-79
2021/12/06 00:53:28;;;;;;;57.33;28.57;;;;;;;0.16;100.00;100167.66;5126985;57;1141106;-79
2021/12/06 00:58:35;;;;;;;59.53;28.07;;;;;;;0.20;100.00;100176.59;5113944;56;1141119;-80
2021/12/06 01:03:43;;;;;;;51.30;25.63;;;;;;;0.26;100.00;100191.11;5188676;56;1141035;-79
2021/12/06 01:08:49;;;;;;;62.67;30.30;;;;;;;0.30;100.00;100198.73;5016448;58;1141108;-79
2021/12/06 01:13:55;;;;;;;65.60;29.70;;;;;;;0.28;100.00;100198.40;5026355;58;1141173;-79
2021/12/06 01:19:00;;;;;;;55.07;25.13;;;;;;;0.34;100.00;100207.23;5029312;56;1141136;-80
2021/12/06 01:24:09;;;;;;;50.70;24.90;;;;;;;0.38;100.00;100201.00;5042479;57;1141252;-80
2021/12/06 01:29:43;;;;;;;56.42;26.97;;;;;;;0.38;100.00;100205.36;5092269;57;1141190;-80
2021/12/06 01:39:47;;;;;;;46.10;24.00;;;;;;;0.39;100.00;100187.55;5092568;57;1141289;-80
2021/12/06 01:44:57;;;;;;;53.60;26.80;;;;;;;0.35;100.00;100188.12;5079192;58;1141207;-80
2021/12/06 01:50:15;;;;;;;52.77;26.07;;;;;;;0.32;100.00;100196.89;5056504;57;1141342;-79
2021/12/06 01:55:26;;;;;;;45.83;23.47;;;;;;;0.29;100.00;100200.94;5061405;57;1141309;-80
2021/12/06 02:00:40;;;;;;;53.60;26.03;;;;;;;0.24;100.00;100204.62;5059178;57;1141136;-81
2021/12/06 02:05:49;;;;;;;49.80;25.07;;;;;;;0.28;100.00;100221.81;5053843;57;1141071;-79
2021/12/06 02:11:01;;;;;;;54.03;25.80;;;;;;;0.26;100.00;100224.92;5068839;57;1141589;-79
2021/12/06 02:16:05;;;;;;;52.80;24.00;;;;;;;0.25;100.00;100227.13;5124538;56;1140989;-79
2021/12/06 02:21:17;;;;;;;50.27;24.60;;;;;;;0.31;100.00;100227.70;5048188;56;1141182;-80
2021/12/06 02:26:24;;;;;;;49.90;24.93;;;;;;;0.31;100.00;100223.80;5047004;58;1141063;-78
2021/12/06 02:31:30;;;;;;;39.57;21.90;;;;;;;0.35;100.00;100227.98;5104625;57;1141130;-80
2021/12/06 02:36:36;;;;;;;43.27;21.47;;;;;;;0.38;100.00;100230.92;5184996;56;1139041;-80
2021/12/06 02:41:43;;;;;;;37.60;16.40;;;;;;;0.35;100.00;100230.58;5210279;56;1138976;-79
2021/12/06 02:46:49;;;;;;;41.03;22.37;;;;;;;0.30;100.00;100233.00;5210342;56;1139086;-80
2021/12/06 02:51:55;;;;;;;56.15;26.30;;;;;;;0.29;100.00;100241.70;5210098;56;1138987;-79
2021/12/06 03:02:20;;;;;;;47.70;22.17;;;;;;;0.25;100.00;100250.53;5210253;56;1139342;-79
2021/12/06 03:07:28;;;;;;;53.87;25.43;;;;;;;0.24;100.00;100252.28;5210213;56;1139052;-79
2021/12/06 03:12:35;;;;;;;43.90;20.93;;;;;;;0.20;100.00;100265.45;5190977;56;1139437;-79
2021/12/06 03:17:41;;;;;;;48.70;22.73;;;;;;;0.17;100.00;100267.72;5213554;56;1139019;-79
2021/12/06 03:22:48;;;;;;;49.83;24.53;;;;;;;0.15;100.00;100272.16;5263808;56;1139049;-79
2021/12/06 03:27:54;;;;;;;51.30;22.73;;;;;;;0.11;100.00;100275.78;5264007;56;1139389;-79
2021/12/06 03:33:00;;;;;;;45.07;21.27;;;;;;;0.09;100.00;100275.44;5263972;55;1139290;-80
2021/12/06 03:38:06;;;;;;;43.20;19.00;;;;;;;0.11;100.00;100280.98;5263860;55;1139058;-78
2021/12/06 03:43:12;;;;;;;48.57;21.97;;;;;;;0.06;100.00;100289.39;5263552;56;1139148;-80
2021/12/06 03:48:19;;;;;;;41.85;20.02;;;;;;;0.10;100.00;100292.73;5263670;56;1139186;-80
2021/12/06 03:53:25;;;;;;;49.90;24.17;;;;;;;0.06;100.00;100298.50;5263961;56;1137080;-79
2021/12/06 03:58:32;;;;;;;46.20;21.10;;;;;;;0.08;100.00;100304.48;5264124;56;1137557;-79
2021/12/06 04:03:41;;;;;;;50.57;23.40;;;;;;;0.09;100.00;100306.19;5265014;56;1141203;-78
2021/12/06 04:08:47;;;;;;;50.58;23.32;;;;;;;0.09;100.00;100319.64;5201071;56;1141037;-79
2021/12/06 04:13:53;;;;;;;45.20;22.80;;;;;;;0.12;100.00;100332.08;5200826;56;1141178;-78
2021/12/06 04:18:59;;;;;;;46.13;21.53;;;;;;;0.13;100.00;100329.03;5135547;56;1141256;-77
2021/12/06 04:24:06;;;;;;;47.03;22.23;;;;;;;0.11;100.00;100331.69;5020896;58;1141152;-78
2021/12/06 04:29:13;;;;;;;43.80;21.60;;;;;;;0.11;100.00;100336.03;5020144;58;1141169;-78
2021/12/06 04:34:22;;;;;;;45.00;21.17;;;;;;;0.14;100.00;100336.77;5079315;58;1141094;-79
2021/12/06 04:39:29;;;;;;;52.83;23.13;;;;;;;0.17;100.00;100344.88;5091869;57;1141105;-78
2021/12/06 04:44:36;;;;;;;47.30;20.73;;;;;;;0.18;100.00;100346.13;5091839;57;1141129;-79
2021/12/06 04:49:44;;;;;;;48.07;21.53;;;;;;;0.21;100.00;100349.07;5092153;57;1141092;-80
2021/12/06 04:54:54;;;;;;;49.17;20.50;;;;;;;0.23;100.00;100348.11;5082623;58;1141289;-78
2021/12/06 05:00:14;;;;;;;42.73;19.03;;;;;;;0.23;100.00;100346.81;5043632;57;1141226;-78
2021/12/06 05:05:24;;;;;;;52.53;22.23;;;;;;;0.25;100.00;100357.16;5033474;58;1141186;-80
2021/12/06 05:10:32;;;;;;;50.67;21.20;;;;;;;0.29;100.00;100362.65;5049020;58;1141140;-79
2021/12/06 05:15:38;;;;;;;56.28;22.82;;;;;;;0.31;100.00;100362.96;5040546;57;1141156;-77
2021/12/06 05:20:44;;;;;;;44.70;21.10;;;;;;;0.35;100.00;100370.20;5132349;57;1141352;-78
2021/12/06 05:25:52;;;;;;;38.27;17.43;;;;;;;0.37;100.00;100371.45;5153344;57;1141335;-77
2021/12/06 05:31:00;;;;;;;49.63;21.17;;;;;;;0.35;100.00;100380.61;5175272;57;1141063;-78
2021/12/06 05:36:06;;;;;;;45.40;19.97;;;;;;;0.37;100.00;100384.00;5100174;58;1141140;-79
2021/12/06 05:41:12;;;;;;;49.13;21.20;;;;;;;0.39;100.00;100384.80;5118917;57;1141153;-78
2021/12/06 05:46:18;;;;;;;54.37;22.70;;;;;;;0.34;100.00;100387.56;5130123;57;1141238;-78
2021/12/06 05:51:25;;;;;;;55.27;25.37;;;;;;;0.34;100.00;100402.32;5109707;58;1141590;-78
2021/12/06 05:56:31;;;;;;;51.77;22.97;;;;;;;0.37;100.00;100406.11;5109683;58;1141183;-80
2021/12/06 06:01:36;;;;;;;67.73;27.47;;;;;;;0.35;100.00;100399.66;5109412;58;1141147;-77
2021/12/06 06:06:42;;;;;;;73.00;29.73;;;;;;;0.40;100.00;100402.55;5132217;57;1141414;-81
2021/12/06 06:11:48;;;;;;;68.27;27.90;;;;;;;0.45;100.00;100393.68;5109459;58;1141191;-80
2021/12/06 06:16:56;;;;;;;83.97;30.73;;;;;;;0.49;100.00;100386.13;5085616;56;1141214;-78
2021/12/06 06:22:01;;;;;;;77.00;30.40;;;;;;;0.53;100.00;100397.27;5129497;56;1141156;-78
2021/12/06 06:27:08;;;;;;;59.33;27.23;;;;;;;0.56;100.00;100403.22;5128705;56;1141238;-78
2021/12/06 06:32:13;;;;;;;78.83;34.93;;;;;;;0.56;100.00;100408.88;5129372;56;1141168;-79
2021/12/06 06:37:20;;;;;;;156.57;57.43;;;;;;;0.49;100.00;100413.45;5104230;57;1141073;-77
2021/12/06 06:42:27;;;;;;;151.97;47.43;;;;;;;0.46;100.00;100421.36;5127655;56;1141161;-79
2021/12/06 06:47:33;;;;;;;80.90;27.47;;;;;;;0.39;100.00;100435.97;5046396;58;1141188;-78
2021/12/06 06:52:40;;;;;;;59.33;20.07;;;;;;;0.39;100.00;100435.97;5046417;57;1138996;-78
2021/12/06 06:57:47;;;;;;;58.80;23.60;;;;;;;0.37;100.00;100438.62;5046512;57;1139034;-80
2021/12/06 07:02:53;;;;;;;56.33;20.07;;;;;;;0.31;100.00;100437.09;5046340;57;1139096;-79
2021/12/06 07:07:59;;;;;;;48.67;19.37;;;;;;;0.30;100.00;100434.58;5045978;58;1139073;-79
2021/12/06 07:13:10;;;;;;;49.47;19.70;;;;;;;0.29;100.00;100436.33;5046467;57;1138760;-78
2021/12/06 07:18:13;;;;;;;31.30;10.80;;;;;;;0.27;100.00;100438.13;5089666;57;1139112;-77
2021/12/06 07:23:18;;;;;;;46.43;19.93;;;;;;;0.31;100.00;100444.05;5088392;57;1139200;-78
2021/12/06 07:28:26;;;;;;;49.03;24.37;;;;;;;0.30;100.00;100449.73;5124512;56;1139062;-77
2021/12/06 07:33:31;;;;;;;56.40;22.87;;;;;;;0.31;100.00;100459.66;5124680;56;1139218;-78
2021/12/06 07:38:38;;;;;;;61.40;27.63;;;;;;;0.32;100.00;100463.95;5124614;56;1139553;-79
2021/12/06 07:43:44;;;;;;;66.13;26.43;;;;;;;0.34;100.00;100463.00;5124447;56;1139059;-79
2021/12/06 07:48:56;;;;;;;41.83;17.83;;;;;;;0.40;100.00;100467.14;5082321;56;1139028;-78
2021/12/06 07:54:01;;;;;;;35.13;16.50;;;;;;;0.39;100.00;100471.95;5101046;57;1138664;-79
2021/12/06 07:59:07;;;;;;;64.40;22.53;;;;;;;0.33;100.00;100469.10;5106494;56;1139196;-77
2021/12/06 08:04:13;;;;;;;57.00;24.55;;;;;;;0.34;100.00;100472.10;5087296;56;1136913;-79
2021/12/06 08:09:19;;;;;;;140.77;71.53;;;;;;;0.39;100.00;100477.59;5088712;56;1137012;-79
2021/12/06 08:14:24;;;;;;;52.03;20.67;;;;;;;0.34;100.00;100494.21;5101182;57;21104;-78
2021/12/06 08:19:30;;;;;;;29.07;13.83;;;;;;;0.34;100.00;100497.27;5078946;56;1136982;-79
2021/12/06 08:24:36;;;;;;;25.70;12.43;;;;;;;0.32;100.00;100500.37;5086385;57;1141389;-78
2021/12/06 08:29:43;;;;;;;28.63;13.60;;;;;;;0.32;100.00;100500.37;5084162;57;1140948;-78
2021/12/06 08:34:49;;;;;;;35.07;14.73;;;;;;;0.36;100.00;100501.96;5100841;56;1141060;-77
2021/12/06 08:39:55;;;;;;;33.00;16.37;;;;;;;0.37;100.00;100507.56;5129777;56;1141136;-79
2021/12/06 08:45:01;;;;;;;38.20;18.43;;;;;;;0.45;100.00;100517.71;5127460;56;1141239;-79
2021/12/06 08:50:11;;;;;;;30.77;15.90;;;;;;;0.44;100.00;100523.37;5110285;56;1141159;-80
2021/12/06 08:55:19;;;;;;;35.10;16.30;;;;;;;0.42;100.00;100529.52;5087562;57;1141108;-80
2021/12/06 09:00:29;;;;;;;43.02;18.32;;;;;;;0.45;100.00;100532.88;5088037;57;1141505;-78
2021/12/06 09:05:41;;;;;;;31.80;16.53;;;;;;;0.44;100.00;100536.83;5057549;57;1141278;-81
2021/12/06 09:10:50;;;;;;;42.73;20.33;;;;;;;0.40;100.00;100545.19;5067831;56;1141138;-79
2021/12/06 09:15:59;;;;;;;46.87;20.33;;;;;;;0.43;100.00;100548.98;5087976;56;1141078;-78
2021/12/06 09:21:09;;;;;;;49.57;21.97;;;;;;;0.46;100.00;100541.53;5086137;57;1141092;-78
2021/12/06 09:26:16;;;;;;;33.70;17.07;;;;;;;0.48;100.00;100543.59;5085594;56;1141095;-80
2021/12/06 09:31:22;;;;;;;36.97;19.10;;;;;;;0.56;100.00;100554.59;5086007;56;1141479;-80
2021/12/06 09:36:28;;;;;;;35.50;17.93;;;;;;;0.49;100.00;100553.09;5098596;57;1141071;-80
2021/12/06 09:41:35;;;;;;;27.17;13.70;;;;;;;0.48;100.00;100548.80;5095560;57;1141435;-80
2021/12/06 09:46:42;;;;;;;32.80;15.03;;;;;;;0.47;100.00;100554.91;5088519;57;1141193;-79
2021/12/06 09:51:52;;;;;;;34.03;15.60;;;;;;;0.45;100.00;100564.55;5073828;57;1141069;-78
2021/12/06 09:57:00;;;;;;;38.57;16.00;;;;;;;0.42;100.00;100556.39;5055106;57;1141120;-81
2021/12/06 10:02:09;;;;;;;36.60;17.77;;;;;;;0.40;100.00;100554.73;5046568;57;1141433;-79
2021/12/06 10:07:17;;;;;;;28.20;13.50;;;;;;;0.43;100.00;100555.48;5046371;57;1141421;-78
2021/12/06 10:12:24;;;;;;;33.13;17.73;;;;;;;0.49;100.00;100559.61;5046564;57;1141479;-79
2021/12/06 10:17:32;;;;;;;28.73;15.10;;;;;;;0.47;100.00;100559.66;5089702;56;1141306;-80
2021/12/06 10:22:39;;;;;;;38.30;18.03;;;;;;;0.51;100.00;100548.25;5194350;57;1141099;-78
2021/12/06 10:28:03;;;;;;;43.43;21.03;;;;;;;0.51;100.00;100554.75;5194398;57;1141129;-79
2021/12/06 10:33:13;;;;;;;36.17;18.27;;;;;;;0.56;100.00;100555.89;5194306;56;1141139;-80
2021/12/06 10:38:24;;;;;;;;;;;;;;;0.55;100.00;100552.89;5198134;57;1138913;-78
2021/12/06 10:43:30;;;;;;;59.97;23.33;;;;;;;0.57;100.00;100557.59;5196836;57;972299;-82
2021/12/06 10:48:39;;;;;;;32.93;16.07;;;;;;;0.55;100.00;100553.74;5194064;57;1137394;-79
2021/12/06 10:53:55;;;;;;;31.87;16.20;;;;;;;0.52;100.00;100555.15;5184201;57;1138847;-81
2021/12/06 10:58:57;;;;;;;23.00;12.50;;;;;;;0.50;100.00;100547.84;5179056;57;1139142;-80
2021/12/06 11:04:07;;;;;;;35.73;19.47;;;;;;;0.48;100.00;100550.95;5156672;57;1139434;-82
2021/12/06 11:09:22;;;;;;;36.83;16.17;;;;;;;0.41;100.00;100551.23;5139759;57;1139032;-81
2021/12/06 11:14:38;;;;;;;47.73;23.23;;;;;;;0.42;100.00;100547.28;5183353;57;1139131;-81
2021/12/06 11:19:43;;;;;;;35.47;18.03;;;;;;;0.47;100.00;100557.50;5113384;56;1139284;-81
2021/12/06 11:24:51;;;;;;;27.43;12.80;;;;;;;0.48;100.00;100556.60;5005845;58;1139041;-82
2021/12/06 11:30:05;;;;;;;35.33;14.87;;;;;;;0.52;100.00;100563.41;4924002;59;1136842;-82
2021/12/06 11:35:17;;;;;;;20.12;10.45;;;;;;;0.48;100.00;100558.75;4921978;59;1141348;-82
2021/12/06 11:40:29;;;;;;;37.55;13.60;;;;;;;0.50;100.00;100556.10;4922450;60;1141083;-82
2021/12/06 11:45:52;;;;;;;40.77;16.30;;;;;;;0.50;100.00;100562.16;4922717;60;1141596;-81
2021/12/06 11:51:08;;;;;;;30.62;12.20;;;;;;;0.49;100.00;100559.61;4923195;60;1141166;-79
2021/12/06 11:56:26;;;;;;;21.45;11.35;;;;;;;0.49;100.00;100563.06;4923602;59;1141139;-81
2021/12/06 12:01:40;;;;;;;23.33;13.23;;;;;;;0.46;100.00;100557.95;4926919;59;1141198;-81
2021/12/06 12:06:50;;;;;;;18.33;10.80;;;;;;;0.42;100.00;100575.05;4926445;60;1141122;-80
2021/12/06 12:12:23;;;;;;;28.70;13.40;;;;;;;0.39;100.00;100577.75;4943078;59;1141024;-80
2021/12/06 12:17:33;;;;;;;28.40;14.43;;;;;;;0.37;100.00;100585.61;5007214;58;1141078;-79
2021/12/06 12:22:40;;;;;;;21.07;10.87;;;;;;;0.35;100.00;100586.96;5056430;58;1141087;-81
2021/12/06 12:27:56;;;;;;;24.07;12.63;;;;;;;0.34;100.00;100589.61;5056776;58;1141122;-80
2021/12/06 12:32:54;;;;;;;22.20;10.50;;;;;;;0.35;100.00;100584.81;5055405;58;1141130;-79
2021/12/06 12:38:01;;;;;;;24.70;11.90;;;;;;;0.29;100.00;100593.69;5057198;58;1141219;-80
2021/12/06 12:43:14;;;;;;;24.87;11.67;;;;;;;0.29;100.00;100594.14;5056909;58;1141221;-80
2021/12/06 12:48:25;;;;;;;27.62;14.58;;;;;;;0.35;100.00;100592.61;5057547;58;1141138;-80
2021/12/06 12:53:59;;;;;;;27.83;12.73;;;;;;;0.40;100.00;100587.26;5057010;58;1141171;-79
2021/12/06 12:59:40;;;;;;;28.20;14.20;;;;;;;0.42;100.00;100586.76;5057014;58;1139031;-82
2021/12/06 13:05:10;;;;;;;22.37;12.57;;;;;;;0.50;100.00;100587.33;5056894;58;1139008;-81
2021/12/06 13:10:36;;;;;;;26.57;13.43;;;;;;;0.48;100.00;100585.22;5057149;58;1137090;-79
2021/12/06 13:16:22;;;;;;;32.30;14.83;;;;;;;0.52;100.00;100572.06;5056909;58;1141190;-81
2021/12/06 13:21:56;;;;;;;33.37;16.03;;;;;;;0.53;100.00;100569.01;5041535;58;1141126;-82
2021/12/06 13:27:08;;;;;;;39.08;17.65;;;;;;;0.50;100.00;100567.81;4977029;58;1141194;-80
2021/12/06 13:32:54;;;;;;;38.73;18.20;;;;;;;0.48;100.00;100573.52;4828512;60;1141147;-80
2021/12/06 13:38:32;;;;;;;36.80;16.80;;;;;;;0.45;100.00;100573.65;4824608;60;1141195;-80
2021/12/06 13:43:45;;;;;;;38.77;17.37;;;;;;;0.43;100.00;100572.84;4822745;61;1141099;-78
2021/12/06 13:48:57;;;;;;;31.23;14.57;;;;;;;0.47;100.00;100569.21;4824874;60;1141204;-80
2021/12/06 13:54:11;;;;;;;49.15;15.80;;;;;;;0.49;100.00;100568.71;4880383;59;1139046;-81
2021/12/06 13:59:21;;;;;;;40.33;17.50;;;;;;;0.56;100.00;100582.77;4901376;58;1139086;-79
2021/12/06 14:04:27;;;;;;;47.97;21.77;;;;;;;0.55;100.00;100589.32;4901196;58;1139223;-80
2021/12/06 14:09:39;;;;;;;70.03;28.90;;;;;;;0.55;100.00;100595.83;4901381;58;1139173;-82
2021/12/06 14:14:55;;;;;;;35.27;16.23;;;;;;;0.55;100.00;100599.28;4901378;59;1139066;-81
2021/12/06 14:20:04;;;;;;;44.97;20.47;;;;;;;0.52;100.00;100605.03;4893120;60;1139080;-80
2021/12/06 14:25:13;;;;;;;43.75;19.75;;;;;;;0.49;100.00;100611.64;4951953;58;1139141;-80
2021/12/06 14:30:22;;;;;;;40.78;16.85;;;;;;;0.44;100.00;100615.73;5102714;58;1139437;-81
2021/12/06 14:35:30;;;;;;;58.03;23.47;;;;;;;0.48;100.00;100629.45;5024000;58;1139063;-81
2021/12/06 14:40:36;;;;;;;45.83;23.37;;;;;;;0.50;100.00;100627.66;5020264;59;1136978;-81
2021/12/06 14:45:42;;;;;;;35.80;16.87;;;;;;;0.53;100.00;100631.01;5020515;59;1137213;-80
2021/12/06 14:51:04;;;;;;;40.47;17.60;;;;;;;0.46;100.00;100643.81;5020435;59;1141129;-81
2021/12/06 14:56:13;;;;;;;43.70;21.27;;;;;;;0.44;100.00;100650.85;5017977;59;1141047;-81
2021/12/06 15:01:15;;;;;;;30.03;15.30;;;;;;;0.42;100.00;100641.39;4880234;59;1141283;-81
2021/12/06 15:06:22;;;;;;;32.20;17.07;;;;;;;0.38;100.00;100650.20;5019564;58;1141241;-81
2021/12/06 15:11:31;;;;;;;33.23;19.03;;;;;;;0.39;100.00;100642.80;4879825;59;1141376;-80
2021/12/06 15:16:38;;;;;;;27.87;14.80;;;;;;;0.38;100.00;100641.94;5023049;58;1141033;-81
2021/12/06 15:21:57;;;;;;;34.83;17.10;;;;;;;0.42;100.00;100649.20;5045818;58;1141201;-81
2021/12/06 15:27:07;;;;;;;40.97;19.40;;;;;;;0.43;100.00;100648.30;4996059;57;1141392;-81
2021/12/06 15:32:15;;;;;;;56.80;25.10;;;;;;;0.42;100.00;100647.45;5105542;57;1141107;-81
2021/12/06 15:37:37;;;;;;;66.37;25.53;;;;;;;0.42;100.00;100647.89;5135339;57;1141071;-81
2021/12/06 15:42:47;;;;;;;91.73;36.63;;;;;;;0.44;100.00;100652.16;4998791;58;1141174;-80
2021/12/06 15:47:53;;;;;;;90.97;37.20;;;;;;;0.37;100.00;100651.95;5073565;57;1141123;-80
2021/12/06 15:53:00;;;;;;;104.27;36.93;;;;;;;0.38;100.00;100654.09;5072504;57;1141381;-81
2021/12/06 15:58:12;;;;;;;71.57;26.57;;;;;;;0.35;100.00;100657.20;5128809;57;1143241;-81
2021/12/06 16:03:16;;;;;;;47.00;22.83;;;;;;;0.33;100.00;100645.14;5114766;57;1141039;-81
2021/12/06 16:08:22;;;;;;;119.37;44.80;;;;;;;0.31;100.00;100662.09;5064825;57;1141140;-81
2021/12/06 16:13:34;;;;;;;83.97;30.93;;;;;;;0.31;100.00;100660.80;5048497;57;1143219;-80
2021/12/06 16:18:43;;;;;;;47.20;23.00;;;;;;;0.35;100.00;100660.25;5103898;57;1141048;-81
2021/12/06 16:23:53;;;;;;;47.97;20.67;;;;;;;0.30;100.00;100663.47;5132825;57;1141097;-81
2021/12/06 16:29:03;;;;;;;27.80;13.67;;;;;;;0.24;100.00;100654.11;5126306;56;1141160;-80
2021/12/06 16:34:15;;;;;;;31.10;15.50;;;;;;;0.26;100.00;100657.52;5079597;56;1141140;-80
2021/12/06 16:39:38;;;;;;;58.83;22.70;;;;;;;0.22;100.00;100649.41;5013057;57;1141090;-81
2021/12/06 16:44:51;;;;;;;58.80;24.60;;;;;;;0.19;100.00;100652.55;4993044;58;1139078;-80
2021/12/06 16:50:10;;;;;;;50.00;20.88;;;;;;;0.19;100.00;100653.41;5107123;57;1139074;-81
2021/12/06 16:55:27;;;;;;;50.97;19.47;;;;;;;0.22;100.00;100653.76;5066428;58;1139221;-81
2021/12/06 17:00:51;;;;;;;53.03;20.73;;;;;;;0.27;100.00;100660.97;5066732;58;1139008;-81
2021/12/06 17:06:01;;;;;;;42.43;19.00;;;;;;;0.34;100.00;100667.66;5066986;58;1139155;-82
2021/12/06 17:11:15;;;;;;;75.90;27.07;;;;;;;0.35;100.00;100675.86;5063747;58;1136790;-82
2021/12/06 17:16:23;;;;;;;56.73;22.20;;;;;;;0.33;100.00;100669.84;5075399;57;1141032;-82
2021/12/06 17:21:30;;;;;;;73.57;34.23;;;;;;;0.28;100.00;100671.77;5216033;56;1141198;-82
2021/12/06 17:26:36;;;;;;;75.40;34.23;;;;;;;0.24;100.00;100680.57;5219035;56;1141248;-81
2021/12/06 17:31:45;;;;;;;55.77;24.63;;;;;;;0.21;100.00;100681.96;5192670;56;1141158;-81
2021/12/06 17:36:54;;;;;;;56.03;25.53;;;;;;;0.15;100.00;100685.63;5220537;56;1141332;-80
2021/12/06 17:42:03;;;;;;;58.03;24.03;;;;;;;0.15;100.00;100682.18;5119813;57;1141514;-81
2021/12/06 17:47:11;;;;;;;52.97;23.83;;;;;;;0.14;100.00;100677.87;5119154;57;1141135;-81
2021/12/06 17:52:16;;;;;;;46.33;24.70;;;;;;;0.11;100.00;100681.42;5119517;57;1141231;-81
2021/12/06 17:57:31;;;;;;;43.60;19.10;;;;;;;0.14;100.00;100683.93;5120156;57;1141138;-82
2021/12/06 18:02:32;;;;;;;133.27;53.83;;;;;;;0.13;100.00;100684.83;5118413;57;1140609;-81
2021/12/06 18:07:38;;;;;;;95.37;39.67;;;;;;;0.04;100.00;100677.30;5118871;57;1143225;-82
2021/12/06 18:12:43;;;;;;;50.73;23.23;;;;;;;0.03;100.00;100676.90;5118885;57;1141252;-81
2021/12/06 18:17:49;;;;;;;47.67;19.73;;;;;;;0.02;100.00;100679.09;5080988;57;1141400;-81
2021/12/06 18:22:55;;;;;;;182.97;81.80;;;;;;;-0.01;100.00;100677.47;5035883;58;1141173;-80
2021/12/06 18:28:03;;;;;;;118.53;42.07;;;;;;;-0.03;100.00;100684.91;5040459;58;1145490;-82
2021/12/06 18:33:09;;;;;;;80.60;34.07;;;;;;;0.02;100.00;100683.45;5066171;57;1145356;-81
2021/12/06 18:38:22;;;;;;;94.87;36.00;;;;;;;0.01;100.00;100682.59;5101006;57;1141501;-80
2021/12/06 18:48:45;;;;;;;99.00;39.73;;;;;;;-0.04;100.00;100676.27;5048964;58;1143495;-82
2021/12/06 18:53:55;;;;;;;65.80;30.90;;;;;;;0.00;100.00;100675.24;5010776;58;1143749;-80
2021/12/06 18:59:02;;;;;;;50.90;19.67;;;;;;;-0.08;100.00;100673.34;4967377;58;1141117;-82
2021/12/06 19:04:07;;;;;;;50.80;21.93;;;;;;;-0.13;100.00;100663.98;4994648;58;1143351;-83
2021/12/06 19:09:14;;;;;;;40.67;18.57;;;;;;;-0.15;100.00;100667.08;5019846;59;1143158;-80
2021/12/06 19:14:20;;;;;;;63.13;25.53;;;;;;;-0.15;100.00;100670.52;5018516;59;1143777;-81
2021/12/06 19:19:26;;;;;;;36.50;18.03;;;;;;;-0.18;100.00;100674.55;5082743;58;1143360;-81
2021/12/06 19:24:31;;;;;;;27.63;13.73;;;;;;;-0.18;100.00;100663.30;5100991;57;1143400;-77
2021/12/06 19:29:37;;;;;;;37.60;18.90;;;;;;;-0.19;100.00;100662.89;5053312;56;1143224;-78
2021/12/06 19:34:47;;;;;;;343.40;103.80;;;;;;;-0.23;100.00;100660.83;5083708;57;1143212;-79
2021/12/06 19:39:52;;;;;;;34.03;15.20;;;;;;;-0.18;100.00;100667.20;5079607;57;1147590;-80
2021/12/06 19:44:58;;;;;;;44.47;17.63;;;;;;;-0.22;100.00;100667.73;5105985;57;1143380;-78
2021/12/06 19:50:05;;;;;;;40.27;19.47;;;;;;;-0.22;100.00;100672.94;5095649;57;1143236;-79
2021/12/06 19:55:12;;;;;;;251.80;92.30;;;;;;;-0.25;100.00;100668.27;5097321;57;1141391;-79
2021/12/06 20:00:21;;;;;;;90.10;36.83;;;;;;;-0.23;100.00;100662.13;5068125;57;1143218;-79
2021/12/06 20:05:28;;;;;;;116.60;48.93;;;;;;;-0.26;100.00;100661.37;5094822;57;1141011;-80
2021/12/06 20:10:34;;;;;;;62.53;26.10;;;;;;;-0.34;100.00;100662.06;5189532;56;1143212;-79
2021/12/06 20:15:40;;;;;;;93.27;45.57;;;;;;;-0.38;100.00;100655.66;5166354;56;1141333;-80
2021/12/06 20:20:46;;;;;;;30.23;16.33;;;;;;;-0.41;100.00;100668.73;5155441;56;1141134;-78
2021/12/06 20:25:54;;;;;;;43.57;20.37;;;;;;;-0.44;100.00;100667.97;5201374;56;1141432;-79
2021/12/06 20:31:00;;;;;;;33.40;19.07;;;;;;;-0.46;100.00;100668.49;5132614;56;1141412;-77
2021/12/06 20:36:07;;;;;;;29.77;15.33;;;;;;;-0.43;100.00;100670.97;5152287;55;1141296;-78
2021/12/06 20:41:13;;;;;;;33.27;14.80;;;;;;;-0.42;100.00;100668.78;5120659;57;1141181;-81
2021/12/06 20:46:18;;;;;;;16.83;7.63;;;;;;;-0.47;100.00;100675.88;5131921;57;1141078;-78
2021/12/06 20:51:29;;;;;;;20.07;9.70;;;;;;;-0.52;100.00;100668.22;5051049;57;1138996;-79
2021/12/06 20:56:32;;;;;;;29.45;13.50;;;;;;;-0.58;99.69;100664.48;5132200;57;1139030;-80
2021/12/06 21:01:38;;;;;;;87.20;32.63;;;;;;;-0.63;99.87;100665.55;5184039;56;1139284;-80
2021/12/06 21:06:44;;;;;;;33.60;15.80;;;;;;;-0.63;99.99;100656.00;5147473;56;1139312;-78
2021/12/06 21:17:01;;;;;;;40.07;18.87;;;;;;;-0.62;99.63;100655.11;5157666;56;1137130;-79
2021/12/06 21:22:09;;;;;;;31.80;14.77;;;;;;;-0.61;99.68;100657.27;5153274;56;1140996;-79
2021/12/06 21:27:22;;;;;;;35.15;14.07;;;;;;;-0.59;99.45;100659.34;5081396;56;1141325;-80
2021/12/06 21:32:23;;;;;;;27.20;13.83;;;;;;;-0.61;99.35;100658.56;5186355;56;1141361;-79
2021/12/06 21:37:29;;;;;;;33.10;15.63;;;;;;;-0.66;98.99;100657.39;5201823;56;1141057;-80
2021/12/06 21:42:34;;;;;;;29.13;14.20;;;;;;;-0.69;99.31;100652.27;5181280;56;1141493;-80
2021/12/06 21:47:40;;;;;;;26.07;13.57;;;;;;;-0.68;99.15;100658.32;5198192;56;1141067;-78
2021/12/06 21:52:47;;;;;;;50.00;19.23;;;;;;;-0.66;99.42;100663.03;5203455;55;1141102;-81
2021/12/06 21:57:54;;;;;;;49.67;21.53;;;;;;;-0.69;98.78;100666.56;5203860;56;1141164;-78
2021/12/06 22:03:05;;;;;;;37.90;17.60;;;;;;;-0.71;99.08;100663.16;5220026;56;1140761;-80
2021/12/06 22:08:11;;;;;;;42.57;17.93;;;;;;;-0.68;99.30;100660.92;5186929;56;1141287;-77
2021/12/06 22:13:16;;;;;;;35.10;15.23;;;;;;;-0.65;99.07;100653.89;5150836;57;1141442;-79
2021/12/06 22:18:22;;;;;;;52.47;21.43;;;;;;;-0.66;98.92;100663.87;5187853;56;1141787;-78
2021/12/06 22:23:27;;;;;;;49.57;21.20;;;;;;;-0.67;98.87;100660.87;5220721;56;1141428;-78
2021/12/06 22:28:33;;;;;;;32.10;14.90;;;;;;;-0.69;98.74;100661.81;5211251;56;1141573;-78
2021/12/06 22:33:39;;;;;;;29.53;13.87;;;;;;;-0.69;98.57;100663.11;5181707;56;1141565;-81
2021/12/06 22:38:44;;;;;;;31.47;14.37;;;;;;;-0.74;97.92;100651.55;5209172;56;1141403;-80
2021/12/06 22:43:49;;;;;;;31.10;12.97;;;;;;;-0.77;98.06;100652.97;5189067;56;1141073;-78
2021/12/06 22:48:55;;;;;;;45.97;16.13;;;;;;;-0.77;98.08;100654.27;5132603;57;1141421;-78
2021/12/06 22:54:01;;;;;;;31.53;15.07;;;;;;;-0.78;97.93;100655.16;5143437;56;1140992;-79
2021/12/06 22:59:06;;;;;;;32.13;15.70;;;;;;;-0.81;97.69;100648.30;5154530;56;1141232;-79
2021/12/06 23:04:12;;;;;;;28.60;12.87;;;;;;;-0.84;97.26;100651.42;5186230;55;1141552;-80
2021/12/06 23:09:18;;;;;;;48.53;20.53;;;;;;;-0.92;96.56;100643.02;5216896;55;1141347;-76
2021/12/06 23:14:24;;;;;;;18.07;9.60;;;;;;;-0.96;97.03;100645.29;5199195;55;1141444;-80
2021/12/06 23:19:30;;;;;;;28.80;11.50;;;;;;;-0.99;96.94;100638.88;5192189;55;1139512;-78